sensor_id;sensor_type;location;lat;lon;timestamp;pressure;altitude;pressure_sealevel;temperature;humidity
50310;BME280;36207;51.850;21.698;2023-08-07T00:02:07;98285.27;;;17.10;69.23
50310;BME280;36207;51.850;21.698;2023-08-07T00:04:33;98281.42;;;17.09;69.50
50310;BME280;36207;51.850;21.698;2023-08-07T00:06:59;98271.60;;;17.09;69.76
50310;BME280;36207;51.850;21.698;2023-08-07T00:09:25;98267.84;;;17.08;69.52
50310;BME280;36207;51.850;21.698;2023-08-07T00:11:51;98272.02;;;17.07;69.67
50310;BME280;36207;51.850;21.698;2023-08-07T00:14:17;98278.27;;;17.04;69.75
50310;BME280;36207;51.850;21.698;2023-08-07T00:16:43;98290.49;;;16.99;69.55
50310;BME280;36207;51.850;21.698;2023-08-07T00:19:08;98300.82;;;16.96;69.20
50310;BME280;36207;51.850;21.698;2023-08-07T00:21:34;98303.20;;;16.93;69.68
50310;BME280;36207;51.850;21.698;2023-08-07T00:24:01;98301.66;;;16.91;69.84
50310;BME280;36207;51.850;21.698;2023-08-07T00:26:27;98300.64;;;16.89;70.09
50310;BME280;36207;51.850;21.698;2023-08-07T00:28:53;98296.63;;;16.85;69.81
50310;BME280;36207;51.850;21.698;2023-08-07T00:31:19;98292.09;;;16.82;69.99
50310;BME280;36207;51.850;21.698;2023-08-07T00:33:45;98279.34;;;16.79;69.79
50310;BME280;36207;51.850;21.698;2023-08-07T00:36:11;98268.00;;;16.77;69.96
50310;BME280;36207;51.850;21.698;2023-08-07T00:38:37;98265.28;;;16.75;70.22
50310;BME280;36207;51.850;21.698;2023-08-07T00:41:03;98266.89;;;16.76;70.14
50310;BME280;36207;51.850;21.698;2023-08-07T00:43:29;98271.47;;;16.74;70.40
50310;BME280;36207;51.850;21.698;2023-08-07T00:45:55;98269.84;;;16.72;70.58
50310;BME280;36207;51.850;21.698;2023-08-07T00:48:21;98275.01;;;16.70;70.27
50310;BME280;36207;51.850;21.698;2023-08-07T00:50:48;98273.98;;;16.69;70.57
50310;BME280;36207;51.850;21.698;2023-08-07T00:53:15;98278.92;;;16.68;70.45
50310;BME280;36207;51.850;21.698;2023-08-07T00:55:41;98278.33;;;16.68;70.55
50310;BME280;36207;51.850;21.698;2023-08-07T00:58:08;98269.20;;;16.66;70.87
50310;BME280;36207;51.850;21.698;2023-08-07T01:00:34;98266.84;;;16.63;70.72
50310;BME280;36207;51.850;21.698;2023-08-07T01:03:00;98260.89;;;16.62;70.64
50310;BME280;36207;51.850;21.698;2023-08-07T01:05:27;98252.64;;;16.61;70.81
50310;BME280;36207;51.850;21.698;2023-08-07T01:07:53;98238.21;;;16.61;70.76
50310;BME280;36207;51.850;21.698;2023-08-07T01:10:28;98237.61;;;16.61;71.35
50310;BME280;36207;51.850;21.698;2023-08-07T01:13:05;98242.13;;;16.60;71.03
50310;BME280;36207;51.850;21.698;2023-08-07T01:15:36;98243.88;;;16.54;71.33
50310;BME280;36207;51.850;21.698;2023-08-07T01:18:04;98244.02;;;16.50;71.93
50310;BME280;36207;51.850;21.698;2023-08-07T01:20:33;98249.02;;;16.48;71.88
50310;BME280;36207;51.850;21.698;2023-08-07T01:23:00;98254.83;;;16.47;72.13
50310;BME280;36207;51.850;21.698;2023-08-07T01:25:26;98251.15;;;16.46;72.08
50310;BME280;36207;51.850;21.698;2023-08-07T01:30:29;98243.54;;;16.43;71.90
50310;BME280;36207;51.850;21.698;2023-08-07T01:33:01;98237.06;;;16.41;72.72
50310;BME280;36207;51.850;21.698;2023-08-07T01:35:34;98233.11;;;16.38;72.50
50310;BME280;36207;51.850;21.698;2023-08-07T01:38:00;98229.65;;;16.36;72.82
50310;BME280;36207;51.850;21.698;2023-08-07T01:40:28;98230.12;;;16.34;72.51
50310;BME280;36207;51.850;21.698;2023-08-07T01:42:55;98227.66;;;16.33;72.69
50310;BME280;36207;51.850;21.698;2023-08-07T01:45:25;98235.71;;;16.30;72.46
50310;BME280;36207;51.850;21.698;2023-08-07T01:47:51;98259.45;;;16.27;72.95
50310;BME280;36207;51.850;21.698;2023-08-07T01:50:22;98272.10;;;16.28;72.73
50310;BME280;36207;51.850;21.698;2023-08-07T01:52:49;98281.70;;;16.27;72.88
50310;BME280;36207;51.850;21.698;2023-08-07T01:55:16;98290.04;;;16.27;72.69
50310;BME280;36207;51.850;21.698;2023-08-07T01:57:42;98296.31;;;16.25;73.16
50310;BME280;36207;51.850;21.698;2023-08-07T02:00:09;98301.85;;;16.23;73.16
50310;BME280;36207;51.850;21.698;2023-08-07T02:02:36;98309.14;;;16.24;72.89
50310;BME280;36207;51.850;21.698;2023-08-07T02:05:04;98309.52;;;16.24;72.76
50310;BME280;36207;51.850;21.698;2023-08-07T02:07:31;98309.98;;;16.23;72.81
50310;BME280;36207;51.850;21.698;2023-08-07T02:09:57;98314.71;;;16.21;72.79
50310;BME280;36207;51.850;21.698;2023-08-07T02:12:24;98310.31;;;16.17;73.31
50310;BME280;36207;51.850;21.698;2023-08-07T02:14:55;98308.67;;;16.15;73.54
50310;BME280;36207;51.850;21.698;2023-08-07T02:17:21;98307.20;;;16.13;73.44
50310;BME280;36207;51.850;21.698;2023-08-07T02:19:50;98309.52;;;16.10;73.18
50310;BME280;36207;51.850;21.698;2023-08-07T02:22:16;98311.05;;;16.07;73.33
50310;BME280;36207;51.850;21.698;2023-08-07T02:24:42;98305.17;;;16.06;73.79
50310;BME280;36207;51.850;21.698;2023-08-07T02:27:08;98298.48;;;16.05;73.54
50310;BME280;36207;51.850;21.698;2023-08-07T02:29:34;98299.18;;;16.05;73.27
50310;BME280;36207;51.850;21.698;2023-08-07T02:32:01;98301.16;;;16.03;73.34
50310;BME280;36207;51.850;21.698;2023-08-07T02:34:31;98291.77;;;16.01;73.25
50310;BME280;36207;51.850;21.698;2023-08-07T02:36:58;98286.40;;;15.98;73.05
50310;BME280;36207;51.850;21.698;2023-08-07T02:39:25;98275.23;;;16.00;73.54
50310;BME280;36207;51.850;21.698;2023-08-07T02:41:51;98277.00;;;16.01;73.68
50310;BME280;36207;51.850;21.698;2023-08-07T02:44:17;98286.10;;;15.99;73.38
50310;BME280;36207;51.850;21.698;2023-08-07T02:46:44;98299.87;;;15.98;73.45
50310;BME280;36207;51.850;21.698;2023-08-07T02:49:10;98308.20;;;15.97;73.58
50310;BME280;36207;51.850;21.698;2023-08-07T02:51:36;98313.64;;;15.98;73.79
50310;BME280;36207;51.850;21.698;2023-08-07T02:54:02;98314.89;;;15.97;73.90
50310;BME280;36207;51.850;21.698;2023-08-07T02:56:28;98319.52;;;15.98;73.88
50310;BME280;36207;51.850;21.698;2023-08-07T02:58:54;98323.59;;;15.95;73.62
50310;BME280;36207;51.850;21.698;2023-08-07T03:01:20;98330.14;;;15.93;73.60
50310;BME280;36207;51.850;21.698;2023-08-07T03:03:47;98333.95;;;15.92;73.78
50310;BME280;36207;51.850;21.698;2023-08-07T03:06:13;98336.27;;;15.92;73.52
50310;BME280;36207;51.850;21.698;2023-08-07T03:08:39;98338.43;;;15.93;73.51
50310;BME280;36207;51.850;21.698;2023-08-07T03:11:04;98341.77;;;15.93;73.42
50310;BME280;36207;51.850;21.698;2023-08-07T03:13:30;98340.91;;;15.93;73.52
50310;BME280;36207;51.850;21.698;2023-08-07T03:16:04;98340.85;;;15.94;73.55
50310;BME280;36207;51.850;21.698;2023-08-07T03:18:31;98332.61;;;15.94;73.56
50310;BME280;36207;51.850;21.698;2023-08-07T03:20:58;98326.02;;;15.96;73.55
50310;BME280;36207;51.850;21.698;2023-08-07T03:23:25;98315.90;;;15.98;73.45
50310;BME280;36207;51.850;21.698;2023-08-07T03:26:01;98315.11;;;15.97;73.69
50310;BME280;36207;51.850;21.698;2023-08-07T03:28:28;98317.68;;;15.97;73.60
50310;BME280;36207;51.850;21.698;2023-08-07T03:30:54;98326.72;;;15.96;73.72
50310;BME280;36207;51.850;21.698;2023-08-07T03:33:19;98328.20;;;15.98;73.54
50310;BME280;36207;51.850;21.698;2023-08-07T03:35:45;98321.88;;;16.01;73.78
50310;BME280;36207;51.850;21.698;2023-08-07T03:38:11;98316.14;;;16.04;73.83
50310;BME280;36207;51.850;21.698;2023-08-07T03:40:37;98315.13;;;16.05;73.80
50310;BME280;36207;51.850;21.698;2023-08-07T03:43:03;98309.90;;;16.05;73.69
50310;BME280;36207;51.850;21.698;2023-08-07T03:45:29;98305.38;;;16.05;73.59
50310;BME280;36207;51.850;21.698;2023-08-07T03:47:55;98311.81;;;16.08;73.98
50310;BME280;36207;51.850;21.698;2023-08-07T03:50:20;98317.80;;;16.11;74.03
50310;BME280;36207;51.850;21.698;2023-08-07T03:52:47;98329.61;;;16.12;73.80
50310;BME280;36207;51.850;21.698;2023-08-07T03:55:13;98330.71;;;16.09;73.99
50310;BME280;36207;51.850;21.698;2023-08-07T03:57:38;98337.98;;;16.08;74.00
50310;BME280;36207;51.850;21.698;2023-08-07T04:00:05;98341.54;;;16.08;74.08
50310;BME280;36207;51.850;21.698;2023-08-07T04:02:31;98353.20;;;16.07;74.29
50310;BME280;36207;51.850;21.698;2023-08-07T04:04:57;98362.39;;;16.04;74.04
50310;BME280;36207;51.850;21.698;2023-08-07T04:07:23;98367.16;;;16.01;73.99
50310;BME280;36207;51.850;21.698;2023-08-07T04:09:49;98370.30;;;15.99;74.02
50310;BME280;36207;51.850;21.698;2023-08-07T04:12:15;98377.22;;;15.96;74.06
50310;BME280;36207;51.850;21.698;2023-08-07T04:14:41;98380.02;;;15.97;74.12
50310;BME280;36207;51.850;21.698;2023-08-07T04:17:07;98378.00;;;15.98;74.15
50310;BME280;36207;51.850;21.698;2023-08-07T04:19:33;98375.58;;;15.98;74.26
50310;BME280;36207;51.850;21.698;2023-08-07T04:21:59;98374.73;;;16.00;74.06
50310;BME280;36207;51.850;21.698;2023-08-07T04:24:25;98376.52;;;16.01;74.18
50310;BME280;36207;51.850;21.698;2023-08-07T04:26:51;98375.88;;;16.02;74.09
50310;BME280;36207;51.850;21.698;2023-08-07T04:29:17;98380.86;;;16.04;74.15
50310;BME280;36207;51.850;21.698;2023-08-07T04:31:43;98382.48;;;16.06;73.90
50310;BME280;36207;51.850;21.698;2023-08-07T04:34:08;98381.69;;;16.07;74.20
50310;BME280;36207;51.850;21.698;2023-08-07T04:36:34;98384.35;;;16.09;74.03
50310;BME280;36207;51.850;21.698;2023-08-07T04:39:00;98385.38;;;16.09;73.86
50310;BME280;36207;51.850;21.698;2023-08-07T04:41:27;98387.54;;;16.11;73.86
50310;BME280;36207;51.850;21.698;2023-08-07T04:43:53;98396.23;;;16.13;74.14
50310;BME280;36207;51.850;21.698;2023-08-07T04:46:18;98402.73;;;16.17;74.02
50310;BME280;36207;51.850;21.698;2023-08-07T04:48:45;98407.06;;;16.19;74.14
50310;BME280;36207;51.850;21.698;2023-08-07T04:51:11;98410.42;;;16.21;73.86
50310;BME280;36207;51.850;21.698;2023-08-07T04:53:37;98406.83;;;16.23;74.14
50310;BME280;36207;51.850;21.698;2023-08-07T04:56:03;98409.14;;;16.22;74.00
50310;BME280;36207;51.850;21.698;2023-08-07T04:58:29;98405.75;;;16.23;73.94
50310;BME280;36207;51.850;21.698;2023-08-07T05:00:56;98403.36;;;16.26;73.76
50310;BME280;36207;51.850;21.698;2023-08-07T05:03:22;98401.05;;;16.26;73.76
50310;BME280;36207;51.850;21.698;2023-08-07T05:05:48;98399.02;;;16.23;73.73
50310;BME280;36207;51.850;21.698;2023-08-07T05:08:14;98401.47;;;16.20;73.56
50310;BME280;36207;51.850;21.698;2023-08-07T05:10:40;98405.11;;;16.17;73.56
50310;BME280;36207;51.850;21.698;2023-08-07T05:13:06;98406.38;;;16.15;73.62
50310;BME280;36207;51.850;21.698;2023-08-07T05:15:32;98404.44;;;16.15;73.72
50310;BME280;36207;51.850;21.698;2023-08-07T05:17:58;98403.66;;;16.17;73.94
50310;BME280;36207;51.850;21.698;2023-08-07T05:20:24;98402.88;;;16.20;73.71
50310;BME280;36207;51.850;21.698;2023-08-07T05:22:50;98399.77;;;16.22;73.76
50310;BME280;36207;51.850;21.698;2023-08-07T05:25:16;98399.45;;;16.22;73.63
50310;BME280;36207;51.850;21.698;2023-08-07T05:27:43;98401.21;;;16.21;73.41
50310;BME280;36207;51.850;21.698;2023-08-07T05:30:09;98404.01;;;16.21;73.57
50310;BME280;36207;51.850;21.698;2023-08-07T05:32:36;98407.69;;;16.22;73.63
50310;BME280;36207;51.850;21.698;2023-08-07T05:35:06;98408.02;;;16.23;73.57
50310;BME280;36207;51.850;21.698;2023-08-07T05:37:33;98410.20;;;16.20;73.49
50310;BME280;36207;51.850;21.698;2023-08-07T05:39:59;98411.85;;;16.18;73.54
50310;BME280;36207;51.850;21.698;2023-08-07T05:42:25;98415.00;;;16.15;73.34
50310;BME280;36207;51.850;21.698;2023-08-07T05:44:51;98419.75;;;16.12;73.41
50310;BME280;36207;51.850;21.698;2023-08-07T05:47:17;98413.38;;;16.09;73.49
50310;BME280;36207;51.850;21.698;2023-08-07T05:49:43;98409.47;;;16.11;73.55
50310;BME280;36207;51.850;21.698;2023-08-07T05:52:09;98411.12;;;16.10;73.66
50310;BME280;36207;51.850;21.698;2023-08-07T05:54:35;98405.66;;;16.08;73.73
50310;BME280;36207;51.850;21.698;2023-08-07T05:57:01;98405.30;;;16.07;73.62
50310;BME280;36207;51.850;21.698;2023-08-07T05:59:27;98404.36;;;16.06;73.92
50310;BME280;36207;51.850;21.698;2023-08-07T06:01:53;98396.95;;;16.08;73.98
50310;BME280;36207;51.850;21.698;2023-08-07T06:04:20;98391.48;;;16.11;74.01
50310;BME280;36207;51.850;21.698;2023-08-07T06:06:47;98388.16;;;16.13;74.04
50310;BME280;36207;51.850;21.698;2023-08-07T06:09:13;98389.25;;;16.14;74.13
50310;BME280;36207;51.850;21.698;2023-08-07T06:11:43;98384.71;;;16.13;74.08
50310;BME280;36207;51.850;21.698;2023-08-07T06:14:09;98381.92;;;16.13;74.07
50310;BME280;36207;51.850;21.698;2023-08-07T06:16:35;98383.30;;;16.17;74.38
50310;BME280;36207;51.850;21.698;2023-08-07T06:19:01;98384.27;;;16.23;74.14
50310;BME280;36207;51.850;21.698;2023-08-07T06:21:27;98389.80;;;16.28;73.96
50310;BME280;36207;51.850;21.698;2023-08-07T06:23:54;98392.08;;;16.34;74.17
50310;BME280;36207;51.850;21.698;2023-08-07T06:26:21;98392.67;;;16.42;74.10
50310;BME280;36207;51.850;21.698;2023-08-07T06:28:46;98399.51;;;16.48;73.76
50310;BME280;36207;51.850;21.698;2023-08-07T06:31:15;98402.59;;;16.54;73.89
50310;BME280;36207;51.850;21.698;2023-08-07T06:33:41;98402.22;;;16.63;73.91
50310;BME280;36207;51.850;21.698;2023-08-07T06:36:07;98399.68;;;16.70;74.28
50310;BME280;36207;51.850;21.698;2023-08-07T06:38:36;98399.16;;;16.77;73.91
50310;BME280;36207;51.850;21.698;2023-08-07T06:41:04;98398.63;;;16.84;74.02
50310;BME280;36207;51.850;21.698;2023-08-07T06:43:30;98397.16;;;16.90;73.37
50310;BME280;36207;51.850;21.698;2023-08-07T06:45:56;98398.82;;;16.97;73.69
50310;BME280;36207;51.850;21.698;2023-08-07T06:48:22;98397.54;;;17.08;73.78
50310;BME280;36207;51.850;21.698;2023-08-07T06:50:50;98388.91;;;17.18;73.58
50310;BME280;36207;51.850;21.698;2023-08-07T06:53:16;98384.20;;;17.24;73.26
50310;BME280;36207;51.850;21.698;2023-08-07T06:55:43;98383.79;;;17.29;73.46
50310;BME280;36207;51.850;21.698;2023-08-07T06:58:10;98384.46;;;17.34;73.56
50310;BME280;36207;51.850;21.698;2023-08-07T07:00:36;98384.47;;;17.39;73.21
50310;BME280;36207;51.850;21.698;2023-08-07T07:03:03;98388.39;;;17.45;72.81
50310;BME280;36207;51.850;21.698;2023-08-07T07:05:30;98394.90;;;17.53;72.74
50310;BME280;36207;51.850;21.698;2023-08-07T07:07:57;98395.85;;;17.64;72.74
50310;BME280;36207;51.850;21.698;2023-08-07T07:10:23;98394.58;;;17.77;72.75
50310;BME280;36207;51.850;21.698;2023-08-07T07:12:49;98396.41;;;17.94;72.02
50310;BME280;36207;51.850;21.698;2023-08-07T07:15:15;98391.73;;;18.00;71.10
50310;BME280;36207;51.850;21.698;2023-08-07T07:17:42;98393.83;;;18.02;71.27
50310;BME280;36207;51.850;21.698;2023-08-07T07:20:08;98398.65;;;18.03;71.18
50310;BME280;36207;51.850;21.698;2023-08-07T07:22:37;98405.65;;;17.99;70.86
50310;BME280;36207;51.850;21.698;2023-08-07T07:25:03;98411.70;;;17.91;70.45
50310;BME280;36207;51.850;21.698;2023-08-07T07:27:30;98417.69;;;17.80;69.93
50310;BME280;36207;51.850;21.698;2023-08-07T07:29:55;98428.23;;;17.73;69.89
50310;BME280;36207;51.850;21.698;2023-08-07T07:32:21;98431.44;;;17.64;68.64
50310;BME280;36207;51.850;21.698;2023-08-07T07:34:47;98427.23;;;17.53;69.13
50310;BME280;36207;51.850;21.698;2023-08-07T07:37:13;98426.55;;;17.47;69.06
50310;BME280;36207;51.850;21.698;2023-08-07T07:39:40;98426.70;;;17.44;69.09
50310;BME280;36207;51.850;21.698;2023-08-07T07:42:07;98420.48;;;17.41;69.32
50310;BME280;36207;51.850;21.698;2023-08-07T07:44:33;98421.73;;;17.44;69.66
50310;BME280;36207;51.850;21.698;2023-08-07T07:47:02;98421.42;;;17.46;69.19
50310;BME280;36207;51.850;21.698;2023-08-07T07:49:28;98422.92;;;17.44;69.16
50310;BME280;36207;51.850;21.698;2023-08-07T07:51:54;98426.36;;;17.43;69.05
50310;BME280;36207;51.850;21.698;2023-08-07T07:54:20;98424.22;;;17.42;69.04
50310;BME280;36207;51.850;21.698;2023-08-07T07:56:46;98429.39;;;17.41;68.95
50310;BME280;36207;51.850;21.698;2023-08-07T07:59:13;98431.63;;;17.47;69.07
50310;BME280;36207;51.850;21.698;2023-08-07T08:01:39;98435.40;;;17.57;69.37
50310;BME280;36207;51.850;21.698;2023-08-07T08:04:05;98436.73;;;17.66;68.99
50310;BME280;36207;51.850;21.698;2023-08-07T08:06:32;98438.70;;;17.80;69.44
50310;BME280;36207;51.850;21.698;2023-08-07T08:08:57;98441.23;;;17.94;68.75
50310;BME280;36207;51.850;21.698;2023-08-07T08:11:25;98450.61;;;18.06;67.28
50310;BME280;36207;51.850;21.698;2023-08-07T08:13:50;98452.27;;;18.18;67.31
50310;BME280;36207;51.850;21.698;2023-08-07T08:16:17;98448.60;;;18.26;66.98
50310;BME280;36207;51.850;21.698;2023-08-07T08:18:43;98446.02;;;18.35;67.03
50310;BME280;36207;51.850;21.698;2023-08-07T08:21:08;98444.96;;;18.43;67.35
50310;BME280;36207;51.850;21.698;2023-08-07T08:23:34;98448.22;;;18.54;67.07
50310;BME280;36207;51.850;21.698;2023-08-07T08:26:01;98454.60;;;18.65;66.62
50310;BME280;36207;51.850;21.698;2023-08-07T08:28:27;98457.81;;;18.72;66.91
50310;BME280;36207;51.850;21.698;2023-08-07T08:30:53;98461.67;;;18.86;66.61
50310;BME280;36207;51.850;21.698;2023-08-07T08:33:19;98465.12;;;18.98;65.19
50310;BME280;36207;51.850;21.698;2023-08-07T08:35:45;98462.57;;;19.08;64.69
50310;BME280;36207;51.850;21.698;2023-08-07T08:38:11;98468.70;;;19.23;66.36
50310;BME280;36207;51.850;21.698;2023-08-07T08:40:38;98476.96;;;19.40;66.19
50310;BME280;36207;51.850;21.698;2023-08-07T08:43:05;98473.07;;;19.54;65.17
50310;BME280;36207;51.850;21.698;2023-08-07T08:45:33;98469.01;;;19.66;65.54
50310;BME280;36207;51.850;21.698;2023-08-07T08:48:04;98468.70;;;19.77;65.27
50310;BME280;36207;51.850;21.698;2023-08-07T08:50:33;98471.52;;;19.81;65.28
50310;BME280;36207;51.850;21.698;2023-08-07T08:53:00;98471.92;;;19.85;65.76
50310;BME280;36207;51.850;21.698;2023-08-07T08:55:28;98474.77;;;19.88;65.58
50310;BME280;36207;51.850;21.698;2023-08-07T08:57:55;98475.35;;;19.96;65.56
50310;BME280;36207;51.850;21.698;2023-08-07T09:00:22;98475.77;;;20.09;65.91
50310;BME280;36207;51.850;21.698;2023-08-07T09:02:51;98478.63;;;20.14;65.46
50310;BME280;36207;51.850;21.698;2023-08-07T09:05:19;98480.16;;;20.09;64.83
50310;BME280;36207;51.850;21.698;2023-08-07T09:07:47;98482.57;;;20.04;64.78
50310;BME280;36207;51.850;21.698;2023-08-07T09:10:15;98486.42;;;20.02;64.95
50310;BME280;36207;51.850;21.698;2023-08-07T09:13:00;98487.41;;;20.01;64.00
50310;BME280;36207;51.850;21.698;2023-08-07T09:15:30;98492.98;;;20.02;63.81
50310;BME280;36207;51.850;21.698;2023-08-07T09:17:57;98492.50;;;20.12;63.90
50310;BME280;36207;51.850;21.698;2023-08-07T09:20:25;98492.72;;;20.21;63.58
50310;BME280;36207;51.850;21.698;2023-08-07T09:22:51;98489.76;;;20.39;64.34
50310;BME280;36207;51.850;21.698;2023-08-07T09:25:31;98488.61;;;20.60;64.40
50310;BME280;36207;51.850;21.698;2023-08-07T09:28:02;98494.04;;;20.76;64.57
50310;BME280;36207;51.850;21.698;2023-08-07T09:30:34;98498.90;;;20.86;63.86
50310;BME280;36207;51.850;21.698;2023-08-07T09:33:00;98502.01;;;20.89;62.75
50310;BME280;36207;51.850;21.698;2023-08-07T09:35:29;98507.46;;;20.87;61.63
50310;BME280;36207;51.850;21.698;2023-08-07T09:37:59;98512.23;;;20.80;61.01
50310;BME280;36207;51.850;21.698;2023-08-07T09:40:25;98515.30;;;20.70;60.24
50310;BME280;36207;51.850;21.698;2023-08-07T09:42:53;98515.77;;;20.61;61.01
50310;BME280;36207;51.850;21.698;2023-08-07T09:45:23;98517.70;;;20.57;62.07
50310;BME280;36207;51.850;21.698;2023-08-07T09:48:05;98518.06;;;20.60;62.41
50310;BME280;36207;51.850;21.698;2023-08-07T09:50:36;98507.77;;;20.66;60.69
50310;BME280;36207;51.850;21.698;2023-08-07T09:53:03;98510.55;;;20.81;61.05
50310;BME280;36207;51.850;21.698;2023-08-07T09:55:29;98518.13;;;20.91;57.48
50310;BME280;36207;51.850;21.698;2023-08-07T09:57:55;98524.52;;;20.90;58.34
50310;BME280;36207;51.850;21.698;2023-08-07T10:00:21;98529.52;;;20.89;55.88
50310;BME280;36207;51.850;21.698;2023-08-07T10:02:48;98534.34;;;20.87;56.30
50310;BME280;36207;51.850;21.698;2023-08-07T10:05:15;98535.19;;;20.92;57.52
50310;BME280;36207;51.850;21.698;2023-08-07T10:07:42;98532.52;;;20.93;56.13
50310;BME280;36207;51.850;21.698;2023-08-07T10:10:10;98529.39;;;20.92;56.17
50310;BME280;36207;51.850;21.698;2023-08-07T10:12:37;98529.20;;;20.89;55.08
50310;BME280;36207;51.850;21.698;2023-08-07T10:15:04;98521.39;;;20.88;55.35
50310;BME280;36207;51.850;21.698;2023-08-07T10:17:31;98519.09;;;20.98;56.68
50310;BME280;36207;51.850;21.698;2023-08-07T10:19:57;98525.31;;;21.07;54.56
50310;BME280;36207;51.850;21.698;2023-08-07T10:22:25;98528.27;;;21.13;55.40
50310;BME280;36207;51.850;21.698;2023-08-07T10:24:53;98530.19;;;21.21;55.92
50310;BME280;36207;51.850;21.698;2023-08-07T10:27:23;98534.11;;;21.33;56.68
50310;BME280;36207;51.850;21.698;2023-08-07T10:29:52;98540.60;;;21.39;57.11
50310;BME280;36207;51.850;21.698;2023-08-07T10:32:20;98540.98;;;21.37;56.71
50310;BME280;36207;51.850;21.698;2023-08-07T10:34:49;98542.83;;;21.29;55.91
50310;BME280;36207;51.850;21.698;2023-08-07T10:37:44;98545.09;;;21.18;55.23
50310;BME280;36207;51.850;21.698;2023-08-07T10:40:12;98544.95;;;21.08;55.40
50310;BME280;36207;51.850;21.698;2023-08-07T10:45:21;98552.75;;;20.97;55.57
50310;BME280;36207;51.850;21.698;2023-08-07T10:48:07;98552.29;;;20.93;55.13
50310;BME280;36207;51.850;21.698;2023-08-07T10:50:48;98549.39;;;20.88;55.33
50310;BME280;36207;51.850;21.698;2023-08-07T10:53:31;98556.01;;;20.81;54.90
50310;BME280;36207;51.850;21.698;2023-08-07T10:56:30;98557.68;;;20.74;54.43
50310;BME280;36207;51.850;21.698;2023-08-07T10:58:57;98558.23;;;20.65;54.50
50310;BME280;36207;51.850;21.698;2023-08-07T11:01:39;98558.38;;;20.65;54.84
50310;BME280;36207;51.850;21.698;2023-08-07T11:04:13;98558.46;;;20.70;55.13
50310;BME280;36207;51.850;21.698;2023-08-07T11:06:40;98559.79;;;20.74;55.75
50310;BME280;36207;51.850;21.698;2023-08-07T11:09:08;98561.36;;;20.75;55.58
50310;BME280;36207;51.850;21.698;2023-08-07T11:14:07;98551.88;;;20.75;55.84
50310;BME280;36207;51.850;21.698;2023-08-07T11:16:36;98555.52;;;20.76;55.80
50310;BME280;36207;51.850;21.698;2023-08-07T11:19:04;98560.54;;;20.78;56.21
50310;BME280;36207;51.850;21.698;2023-08-07T11:21:33;98569.85;;;20.81;56.36
50310;BME280;36207;51.850;21.698;2023-08-07T11:23:59;98568.95;;;20.83;55.95
50310;BME280;36207;51.850;21.698;2023-08-07T11:26:25;98567.14;;;20.95;56.50
50310;BME280;36207;51.850;21.698;2023-08-07T11:28:54;98557.58;;;21.18;56.51
50310;BME280;36207;51.850;21.698;2023-08-07T11:31:21;98552.00;;;21.44;56.85
50310;BME280;36207;51.850;21.698;2023-08-07T11:33:55;98549.28;;;21.63;56.33
50310;BME280;36207;51.850;21.698;2023-08-07T11:36:22;98548.44;;;21.69;54.83
50310;BME280;36207;51.850;21.698;2023-08-07T11:38:48;98550.70;;;21.71;54.66
50310;BME280;36207;51.850;21.698;2023-08-07T11:41:16;98557.55;;;21.70;55.54
50310;BME280;36207;51.850;21.698;2023-08-07T11:43:43;98563.80;;;21.71;54.97
50310;BME280;36207;51.850;21.698;2023-08-07T11:46:15;98568.29;;;21.67;55.28
50310;BME280;36207;51.850;21.698;2023-08-07T11:48:42;98571.27;;;21.64;55.44
50310;BME280;36207;51.850;21.698;2023-08-07T11:51:08;98564.96;;;21.74;56.09
50310;BME280;36207;51.850;21.698;2023-08-07T11:53:39;98565.84;;;21.89;56.07
50310;BME280;36207;51.850;21.698;2023-08-07T11:56:07;98571.67;;;22.01;52.92
50310;BME280;36207;51.850;21.698;2023-08-07T11:58:37;98576.36;;;22.06;53.05
50310;BME280;36207;51.850;21.698;2023-08-07T12:01:09;98585.80;;;21.99;50.85
50310;BME280;36207;51.850;21.698;2023-08-07T12:03:37;98594.90;;;21.84;51.25
50310;BME280;36207;51.850;21.698;2023-08-07T12:06:08;98594.70;;;21.65;49.56
50310;BME280;36207;51.850;21.698;2023-08-07T12:08:36;98594.69;;;21.44;49.37
50310;BME280;36207;51.850;21.698;2023-08-07T12:11:04;98603.82;;;21.27;51.30
50310;BME280;36207;51.850;21.698;2023-08-07T12:13:32;98598.13;;;21.17;52.33
50310;BME280;36207;51.850;21.698;2023-08-07T12:16:01;98599.83;;;21.22;53.01
50310;BME280;36207;51.850;21.698;2023-08-07T12:18:29;98598.27;;;21.28;52.78
50310;BME280;36207;51.850;21.698;2023-08-07T12:21:01;98605.86;;;21.31;52.92
50310;BME280;36207;51.850;21.698;2023-08-07T12:23:28;98613.84;;;21.30;52.83
50310;BME280;36207;51.850;21.698;2023-08-07T12:25:54;98622.73;;;21.25;52.37
50310;BME280;36207;51.850;21.698;2023-08-07T12:28:20;98629.69;;;21.14;52.49
50310;BME280;36207;51.850;21.698;2023-08-07T12:30:47;98631.60;;;21.14;53.29
50310;BME280;36207;51.850;21.698;2023-08-07T12:33:13;98635.67;;;21.29;53.87
50310;BME280;36207;51.850;21.698;2023-08-07T12:35:40;98640.96;;;21.45;53.80
50310;BME280;36207;51.850;21.698;2023-08-07T12:38:07;98642.23;;;21.56;53.70
50310;BME280;36207;51.850;21.698;2023-08-07T12:40:35;98645.34;;;21.67;53.78
50310;BME280;36207;51.850;21.698;2023-08-07T12:43:04;98649.70;;;21.72;53.18
50310;BME280;36207;51.850;21.698;2023-08-07T12:45:31;98648.73;;;21.70;53.32
50310;BME280;36207;51.850;21.698;2023-08-07T12:47:56;98652.46;;;21.66;53.25
50310;BME280;36207;51.850;21.698;2023-08-07T12:50:22;98653.15;;;21.68;53.87
50310;BME280;36207;51.850;21.698;2023-08-07T12:52:48;98658.45;;;21.83;54.33
50310;BME280;36207;51.850;21.698;2023-08-07T12:55:14;98648.20;;;21.98;53.87
50310;BME280;36207;51.850;21.698;2023-08-07T12:57:41;98645.94;;;22.01;53.03
50310;BME280;36207;51.850;21.698;2023-08-07T13:00:09;98644.54;;;22.00;52.96